Time;durP1;ratioP1;P1;durP2;ratioP2;P2;SDS_P1;SDS_P2;PMS_P1;PMS_P2;Temp;Humidity;BMP_temperature;BMP_pressure;BME280_temperature;BME280_humidity;BME280_pressure;Samples;Min_cycle;Max_cycle;Signal;HPM_P1;HPM_P2
2022/06/23 00:00:23;;;;;;;;;;;;;;;20.77;100.00;99654.41;4976502;28;19969;-85
2022/06/23 00:02:48;;;;;;;;;;;;;;;20.69;100.00;99651.47;4975309;28;19930;-86
2022/06/23 00:05:18;;;;;;;;;;;;;;;20.62;100.00;99654.78;4971161;28;20026;-85
2022/06/23 00:07:45;;;;;;;;;;;;;;;20.53;100.00;99659.06;4977774;28;20294;-86
2022/06/23 00:10:13;;;;;;;;;;;;;;;20.47;100.00;99656.88;4977701;28;19990;-85
2022/06/23 00:12:40;;;;;;;;;;;;;;;20.42;100.00;99663.59;4977509;28;20306;-85
2022/06/23 00:15:06;;;;;;;;;;;;;;;20.43;100.00;99670.72;4977333;28;19943;-85
2022/06/23 00:17:45;;;;;;;;;;;;;;;20.45;100.00;99675.03;4977519;28;19929;-85
2022/06/23 00:20:40;;;;;;;;;;;;;;;20.43;100.00;99663.47;4978513;28;19992;-86
2022/06/23 00:23:14;;;;;;;;;;;;;;;20.39;100.00;99666.56;4970332;28;20028;-86
2022/06/23 00:25:39;;;;;;;;;;;;;;;20.33;100.00;99667.88;4978759;28;19930;-86
2022/06/23 00:28:06;;;;;;;;;;;;;;;20.30;100.00;99662.72;5027108;28;19951;-85
2022/06/23 00:30:38;;;;;;;;;;;;;;;20.25;100.00;99662.22;5017637;28;20376;-85
2022/06/23 00:33:27;;;;;;;;;;;;;;;20.23;100.00;99664.16;5017769;28;19936;-86
2022/06/23 00:35:54;;;;;;;;;;;;;;;20.20;100.00;99656.31;5016483;28;19931;-85
2022/06/23 00:38:22;;;;;;;;;;;;;;;20.16;100.00;99657.53;4997803;28;19974;-85
2022/06/23 00:40:48;;;;;;;;;;;;;;;20.13;100.00;99657.72;4997523;28;19976;-86
2022/06/23 00:43:13;;;;;;;;;;;;;;;20.10;100.00;99654.44;4997543;28;19973;-86
2022/06/23 00:45:49;;;;;;;;;;;;;;;20.07;100.00;99655.50;4997893;28;20447;-85
2022/06/23 00:48:29;;;;;;;;;;;;;;;20.04;100.00;99653.03;4997854;28;19981;-86
2022/06/23 00:51:14;;;;;;;;;;;;;;;20.02;100.00;99649.59;5015086;28;19924;-86
2022/06/23 00:53:46;;;;;;;;;;;;;;;19.98;100.00;99648.13;4996572;28;20011;-86
2022/06/23 00:56:31;;;;;;;;;;;;;;;19.93;100.00;99639.53;4996235;28;19924;-85
2022/06/23 00:59:11;;;;;;;;;;;;;;;19.91;100.00;99646.00;4995750;28;20391;-86
2022/06/23 01:01:49;;;;;;;;;;;;;;;19.87;100.00;99653.47;4996414;28;20592;-85
2022/06/23 01:04:33;;;;;;;;;;;;;;;19.85;100.00;99658.09;4995596;28;19939;-85
2022/06/23 01:07:18;;;;;;;;;;;;;;;19.85;100.00;99655.41;4994106;28;20064;-85
2022/06/23 01:09:49;;;;;;;;;;;;;;;19.81;100.00;99661.16;5014058;28;19932;-86
2022/06/23 01:12:46;;;;;;;;;;;;;;;19.80;100.00;99660.34;5013698;28;19926;-86
2022/06/23 01:15:11;;;;;;;;;;;;;;;19.78;100.00;99664.09;4963928;28;20527;-85
2022/06/23 01:17:40;;;;;;;;;;;;;;;19.76;100.00;99658.81;4997221;28;20030;-86
2022/06/23 01:20:17;;;;;;;;;;;;;;;19.75;100.00;99670.63;4997283;28;19951;-85
2022/06/23 01:22:55;;;;;;;;;;;;;;;19.70;100.00;99670.09;4997327;28;19929;-86
2022/06/23 01:25:28;;;;;;;;;;;;;;;19.65;100.00;99673.13;5014110;28;19929;-86
2022/06/23 01:27:57;;;;;;;;;;;;;;;19.61;100.00;99673.47;5010738;28;19925;-86
2022/06/23 01:30:25;;;;;;;;;;;;;;;19.56;100.00;99678.34;5015848;28;19929;-86
2022/06/23 01:33:05;;;;;;;;;;;;;;;19.50;100.00;99670.72;5013283;28;19935;-85
2022/06/23 01:35:40;;;;;;;;;;;;;;;19.48;100.00;99670.84;4980643;28;20093;-86
2022/06/23 01:38:17;;;;;;;;;;;;;;;19.47;100.00;99674.50;4977920;28;19944;-86
2022/06/23 01:40:51;;;;;;;;;;;;;;;19.44;100.00;99680.13;4995455;28;20007;-86
2022/06/23 01:43:19;;;;;;;;;;;;;;;19.45;100.00;99683.69;4996811;28;19961;-86
2022/06/23 01:45:59;;;;;;;;;;;;;;;19.42;100.00;99686.63;4996771;28;20546;-86
2022/06/23 01:51:29;;;;;;;;;;;;;;;19.33;100.00;99695.38;5014349;28;20400;-86
2022/06/23 01:54:07;;;;;;;;;;;;;;;19.31;100.00;99689.22;4996412;28;19932;-86
2022/06/23 01:56:47;;;;;;;;;;;;;;;19.28;100.00;99695.69;4996423;28;19968;-86
2022/06/23 01:59:31;;;;;;;;;;;;;;;19.25;100.00;99690.50;4996641;28;19959;-86
2022/06/23 02:01:59;;;;;;;;;;;;;;;19.22;100.00;99692.56;4996439;28;19932;-86
2022/06/23 02:04:31;;;;;;;;;;;;;;;19.19;100.00;99687.41;4996030;28;19993;-86
2022/06/23 02:07:02;;;;;;;;;;;;;;;19.17;100.00;99694.75;5013142;28;19959;-86
2022/06/23 02:09:33;;;;;;;;;;;;;;;19.14;100.00;99698.50;5014162;28;19928;-86
2022/06/23 02:11:58;;;;;;;;;;;;;;;19.15;100.00;99699.38;4996438;28;19983;-87
2022/06/23 02:14:39;;;;;;;;;;;;;;;19.11;100.00;99703.28;4996266;28;20353;-86
2022/06/23 02:17:24;;;;;;;;;;;;;;;19.13;100.00;99706.72;4996257;28;19932;-86
2022/06/23 02:19:52;;;;;;;;;;;;;;;19.13;100.00;99706.72;4996112;28;19954;-86
2022/06/23 02:22:43;;;;;;;;;;;;;;;19.12;100.00;99703.16;4996136;28;19926;-86
2022/06/23 02:25:16;;;;;;;;;;;;;;;19.12;100.00;99699.59;4992677;28;20456;-86
2022/06/23 02:27:47;;;;;;;;;;;;;;;19.10;100.00;99698.84;5026204;28;19925;-86
2022/06/23 02:30:34;;;;;;;;;;;;;;;19.05;100.00;99698.31;5015571;28;19934;-87
2022/06/23 02:33:07;;;;;;;;;;;;;;;18.99;100.00;99699.63;5014964;28;19933;-87
2022/06/23 02:35:43;;;;;;;;;;;;;;;18.96;100.00;99696.28;4998266;28;19956;-86
2022/06/23 02:38:33;;;;;;;;;;;;;;;18.97;100.00;99695.31;4994572;28;19929;-87
2022/06/23 02:40:58;;;;;;;;;;;;;;;18.97;100.00;99701.56;5011917;28;20004;-86
2022/06/23 02:43:33;;;;;;;;;;;;;;;18.96;100.00;99699.00;4994951;28;19969;-86
2022/06/23 02:45:58;;;;;;;;;;;;;;;18.93;100.00;99699.22;4995588;28;19954;-87
2022/06/23 02:48:32;;;;;;;;;;;;;;;18.92;100.00;99700.16;4995403;28;19929;-86
2022/06/23 02:51:07;;;;;;;;;;;;;;;18.87;100.00;99702.31;4995410;28;20448;-87
2022/06/23 02:53:38;;;;;;;;;;;;;;;18.84;100.00;99705.25;4995135;28;20371;-86
2022/06/23 02:56:22;;;;;;;;;;;;;;;18.78;100.00;99703.84;4995641;28;20276;-86
2022/06/23 02:59:02;;;;;;;;;;;;;;;18.74;100.00;99705.03;5012886;28;19932;-86
2022/06/23 03:01:36;;;;;;;;;;;;;;;18.72;100.00;99712.38;4995208;28;19928;-87
2022/06/23 03:04:05;;;;;;;;;;;;;;;18.69;100.00;99706.31;4995207;28;19923;-87
2022/06/23 03:06:54;;;;;;;;;;;;;;;18.73;100.00;99713.25;4994896;28;19961;-87
2022/06/23 03:09:37;;;;;;;;;;;;;;;18.76;100.00;99708.50;5004720;28;19925;-87
2022/06/23 03:12:06;;;;;;;;;;;;;;;18.75;100.00;99711.28;4994319;28;19938;-87
2022/06/23 03:14:37;;;;;;;;;;;;;;;18.76;100.00;99719.28;4994155;28;19927;-87
2022/06/23 03:17:13;;;;;;;;;;;;;;;18.76;100.00;99735.44;5011343;28;19928;-86
2022/06/23 03:19:42;;;;;;;;;;;;;;;18.77;100.00;99741.69;5011447;28;19956;-87
2022/06/23 03:22:07;;;;;;;;;;;;;;;18.77;100.00;99733.59;5012555;28;20428;-87
2022/06/23 03:24:37;;;;;;;;;;;;;;;18.75;100.00;99733.69;4995458;28;19975;-87
2022/06/23 03:27:12;;;;;;;;;;;;;;;18.74;100.00;99728.44;5003926;28;19965;-87
2022/06/23 03:29:37;;;;;;;;;;;;;;;18.73;100.00;99732.09;4993733;28;19987;-88
2022/06/23 03:32:41;;;;;;;;;;;;;;;18.69;100.00;99733.28;5012234;28;20332;-86
2022/06/23 03:35:06;;;;;;;;;;;;;;;18.65;100.00;99726.41;4951999;29;19934;-86
2022/06/23 03:37:38;;;;;;;;;;;;;;;18.67;100.00;99735.22;4952047;29;19941;-86
2022/06/23 03:43:21;;;;;;;;;;;;;;;18.71;100.00;99747.50;5008736;28;19950;-86
2022/06/23 03:46:09;;;;;;;;;;;;;;;18.77;100.00;99741.69;5013017;28;19975;-87
2022/06/23 03:48:41;;;;;;;;;;;;;;;18.81;100.00;99743.19;5005080;28;19917;-87
2022/06/23 03:51:12;;;;;;;;;;;;;;;18.85;100.00;99742.00;4995157;28;19944;-87
2022/06/23 03:53:45;;;;;;;;;;;;;;;18.88;100.00;99739.13;4994392;28;19934;-87
2022/06/23 03:56:13;;;;;;;;;;;;;;;18.89;100.00;99735.44;4994879;28;19925;-88
2022/06/23 03:59:01;;;;;;;;;;;;;;;18.79;100.00;99747.81;4994706;28;19930;-86
2022/06/23 04:01:46;;;;;;;;;;;;;;;18.99;100.00;99744.59;5004196;28;19944;-87
2022/06/23 04:04:16;;;;;;;;;;;;;;;19.04;100.00;99745.13;4994505;28;19936;-87
2022/06/23 04:06:46;;;;;;;;;;;;;;;19.09;100.00;99749.19;5010947;28;19960;-86
2022/06/23 04:09:18;;;;;;;;;;;;;;;19.15;100.00;99753.31;4994149;28;19936;-87
2022/06/23 04:11:48;;;;;;;;;;;;;;;19.15;100.00;99740.69;4994568;28;19952;-87
2022/06/23 04:14:30;;;;;;;;;;;;;;;19.11;100.00;99743.72;4994792;28;19934;-87
2022/06/23 04:17:06;;;;;;;;;;;;;;;19.14;100.00;99740.81;4994040;28;20017;-86
2022/06/23 04:19:33;;;;;;;;;;;;;;;19.18;100.00;99742.28;5011787;28;19947;-86
2022/06/23 04:22:08;;;;;;;;;;;;;;;19.24;100.00;99741.88;4994652;28;19928;-86
2022/06/23 04:24:34;;;;;;;;;;;;;;;19.31;100.00;99743.16;4993779;28;20031;-87
2022/06/23 04:27:05;;;;;;;;;;;;;;;19.35;100.00;99739.28;5012035;28;20475;-86
2022/06/23 04:29:36;;;;;;;;;;;;;;;19.38;100.00;99736.34;5011867;28;19927;-86
2022/06/23 04:32:03;;;;;;;;;;;;;;;19.49;100.00;99728.34;4994532;28;19930;-86
2022/06/23 04:34:32;;;;;;;;;;;;;;;19.57;100.00;99734.06;4993705;28;19938;-86
2022/06/23 04:36:57;;;;;;;;;;;;;;;19.65;100.00;99731.66;5010826;28;19932;-86
2022/06/23 04:39:38;;;;;;;;;;;;;;;19.65;100.00;99728.94;5010504;28;20538;-86
2022/06/23 04:42:19;;;;;;;;;;;;;;;19.64;100.00;99738.00;4996191;28;19937;-86
2022/06/23 04:44:47;;;;;;;;;;;;;;;19.68;100.00;99742.22;4997753;28;19927;-87
2022/06/23 04:47:23;;;;;;;;;;;;;;;19.92;100.00;99750.31;5013833;28;19925;-86
2022/06/23 04:49:56;;;;;;;;;;;;;;;20.04;100.00;99746.69;4997428;28;19935;-87
2022/06/23 04:52:46;;;;;;;;;;;;;;;20.09;100.00;99749.91;5015333;28;19955;-86
2022/06/23 04:55:14;;;;;;;;;;;;;;;20.14;100.00;99756.69;5013931;28;20307;-87
2022/06/23 04:57:59;;;;;;;;;;;;;;;20.19;100.00;99748.25;4999304;28;20024;-87
2022/06/23 05:00:25;;;;;;;;;;;;;;;20.27;100.00;99762.03;4997147;28;19941;-86
2022/06/23 05:02:53;;;;;;;;;;;;;;;20.37;100.00;99757.66;4997400;28;19951;-87
2022/06/23 05:05:18;;;;;;;;;;;;;;;20.45;100.00;99756.09;5014751;28;20007;-87
2022/06/23 05:08:02;;;;;;;;;;;;;;;20.53;100.00;99756.38;4997518;28;19942;-87
2022/06/23 05:10:33;;;;;;;;;;;;;;;20.65;100.00;99762.66;4997401;28;19938;-86
2022/06/23 05:13:02;;;;;;;;;;;;;;;20.76;100.00;99760.84;4997315;28;19924;-86
2022/06/23 05:15:32;;;;;;;;;;;;;;;20.89;100.00;99763.44;5013467;28;20425;-87
2022/06/23 05:18:20;;;;;;;;;;;;;;;21.03;100.00;99759.69;4997082;28;20382;-87
2022/06/23 05:20:51;;;;;;;;;;;;;;;21.19;100.00;99762.88;5013176;28;19949;-86
2022/06/23 05:23:21;;;;;;;;;;;;;;;21.39;100.00;99770.25;4996734;28;19961;-87
2022/06/23 05:25:51;;;;;;;;;;;;;;;21.47;100.00;99763.25;4997026;28;19926;-87
2022/06/23 05:28:28;;;;;;;;;;;;;;;21.61;100.00;99765.72;5014475;28;19926;-87
2022/06/23 05:30:55;;;;;;;;;;;;;;;21.75;100.00;99772.69;4997053;28;20033;-86
2022/06/23 05:33:26;;;;;;;;;;;;;;;21.87;100.00;99769.88;4996806;28;20026;-86
2022/06/23 05:35:53;;;;;;;;;;;;;;;21.94;100.00;99765.66;4997355;28;20346;-86
2022/06/23 05:38:25;;;;;;;;;;;;;;;21.94;100.00;99756.69;4996785;28;20027;-86
2022/06/23 05:40:55;;;;;;;;;;;;;;;21.90;100.00;99763.31;4996187;28;19988;-86
2022/06/23 05:43:21;;;;;;;;;;;;;;;21.87;100.00;99767.16;4996418;28;19930;-86
2022/06/23 05:45:49;;;;;;;;;;;;;;;21.86;100.00;99759.19;4996746;28;20385;-86
2022/06/23 05:48:27;;;;;;;;;;;;;;;21.97;100.00;99768.13;5014262;28;20024;-86
2022/06/23 05:50:56;;;;;;;;;;;;;;;22.11;100.00;99767.81;4996632;28;19948;-86
2022/06/23 05:53:27;;;;;;;;;;;;;;;22.24;100.00;99764.94;4995964;28;19960;-86
2022/06/23 05:56:00;;;;;;;;;;;;;;;22.31;100.00;99771.56;4996521;28;19933;-86
2022/06/23 05:58:41;;;;;;;;;;;;;;;22.45;100.00;99751.44;4997067;28;19929;-86
2022/06/23 06:01:17;;;;;;;;;;;;;;;22.53;100.00;99755.25;4997027;28;20062;-86
2022/06/23 06:03:48;;;;;;;;;;;;;;;22.66;100.00;99758.63;4996475;28;19933;-85
2022/06/23 06:06:13;;;;;;;;;;;;;;;22.82;100.00;99756.28;5013756;28;20001;-86
2022/06/23 06:11:51;;;;;;;;;;;;;;;23.02;98.30;99758.13;5013778;28;19955;-84
2022/06/23 06:14:20;;;;;;;;;;;;;;;23.06;98.38;99754.13;5012523;28;19958;-84
2022/06/23 06:16:45;;;;;;;;;;;;;;;23.16;98.44;99754.22;5013035;28;20017;-84
2022/06/23 06:19:15;;;;;;;;;;;;;;;23.20;97.90;99764.66;4995663;28;19945;-85
2022/06/23 06:21:41;;;;;;;;;;;;;;;23.33;98.05;99773.44;5013570;28;20358;-84
2022/06/23 06:24:17;;;;;;;;;;;;;;;23.38;97.01;99771.19;4995961;28;19928;-84
2022/06/23 06:26:45;;;;;;;;;;;;;;;23.56;96.87;99767.84;5018026;28;19928;-84
2022/06/23 06:29:22;;;;;;;;;;;;;;;23.68;96.61;99758.56;5033558;28;19922;-86
2022/06/23 06:31:50;;;;;;;;;;;;;;;23.78;96.34;99760.31;5033401;28;19931;-85
2022/06/23 06:34:38;;;;;;;;;;;;;;;23.90;95.63;99761.06;5010254;28;20385;-85
2022/06/23 06:37:06;;;;;;;;;;;;;;;24.02;95.04;99752.66;5013653;28;19930;-84
2022/06/23 06:39:38;;;;;;;;;;;;;;;24.13;94.01;99765.28;5013492;28;19989;-85
2022/06/23 06:42:09;;;;;;;;;;;;;;;24.30;94.64;99764.59;5013272;28;20366;-84
2022/06/23 06:44:40;;;;;;;;;;;;;;;24.46;94.22;99759.44;5013804;28;19938;-85
2022/06/23 06:47:07;;;;;;;;;;;;;;;24.60;92.71;99751.69;4995825;28;20301;-85
2022/06/23 06:49:33;;;;;;;;;;;;;;;24.82;91.55;99760.56;4995419;28;20039;-84
2022/06/23 06:52:00;;;;;;;;;;;;;;;24.86;90.75;99762.84;4995607;28;20012;-85
2022/06/23 06:54:33;;;;;;;;;;;;;;;25.07;89.40;99759.94;4995433;28;19967;-85
2022/06/23 06:57:01;;;;;;;;;;;;;;;25.25;89.83;99769.06;4995452;28;20277;-85
2022/06/23 06:59:31;;;;;;;;;;;;;;;25.39;88.12;99765.88;4995428;28;19956;-85
2022/06/23 07:02:01;;;;;;;;;;;;;;;25.63;85.93;99761.59;5012713;28;20306;-86
2022/06/23 07:04:30;;;;;;;;;;;;;;;25.60;82.77;99764.63;4994616;28;20055;-86
2022/06/23 07:07:01;;;;;;;;;;;;;;;25.80;83.10;99760.78;4994566;28;19917;-85
2022/06/23 07:09:26;;;;;;;;;;;;;;;25.97;82.90;99761.84;5012345;28;19956;-86
2022/06/23 07:12:08;;;;;;;;;;;;;;;26.28;80.63;99765.09;5012886;28;19973;-84
2022/06/23 07:14:40;;;;;;;;;;;;;;;26.45;79.86;99753.34;4995422;28;19935;-86
2022/06/23 07:17:25;;;;;;;;;;;;;;;26.81;80.06;99752.31;5012515;28;20391;-86
2022/06/23 07:20:09;;;;;;;;;;;;;;;27.01;76.30;99748.38;5001422;28;19951;-86
2022/06/23 07:22:38;;;;;;;;;;;;;;;27.41;75.76;99748.66;4994669;28;19934;-86
2022/06/23 07:25:04;;;;;;;;;;;;;;;27.71;74.55;99750.81;5012315;28;19933;-86
2022/06/23 07:27:39;;;;;;;;;;;;;;;27.94;73.85;99749.22;5005460;28;19930;-83
2022/06/23 07:30:07;;;;;;;;;;;;;;;28.37;68.35;99739.91;5031880;28;19934;-87
2022/06/23 07:32:32;;;;;;;;;;;;;;;28.74;70.35;99737.56;5012736;28;20028;-86
2022/06/23 07:35:01;;;;;;;;;;;;;;;28.97;69.95;99734.97;5001255;28;20022;-83
2022/06/23 07:37:31;;;;;;;;;;;;;;;28.99;69.04;99731.03;4992828;28;19979;-83
2022/06/23 07:40:02;;;;;;;;;;;;;;;29.44;67.08;99742.25;4993351;28;19953;-84
2022/06/23 07:42:47;;;;;;;;;;;;;;;29.06;64.62;99737.50;5011463;28;19965;-84
2022/06/23 07:45:16;;;;;;;;;;;;;;;29.23;65.32;99739.22;4992942;28;19929;-86
2022/06/23 07:47:42;;;;;;;;;;;;;;;29.75;64.94;99739.59;4994547;28;19982;-84
2022/06/23 07:50:08;;;;;;;;;;;;;;;30.23;64.15;99739.34;5012009;28;20344;-87
2022/06/23 07:52:35;;;;;;;;;;;;;;;30.34;61.84;99736.22;4992646;28;19929;-86
2022/06/23 07:55:00;;;;;;;;;;;;;;;30.66;60.40;99735.94;4993034;28;19939;-86
2022/06/23 07:57:29;;;;;;;;;;;;;;;30.39;60.55;99733.75;5010307;28;20035;-86
2022/06/23 07:59:58;;;;;;;;;;;;;;;30.78;57.88;99726.25;4993149;28;19951;-86
2022/06/23 08:02:35;;;;;;;;;;;;;;;30.87;54.96;99725.13;4993122;28;20346;-84
2022/06/23 08:05:09;;;;;;;;;;;;;;;31.05;57.72;99723.94;4991671;28;19950;-84
2022/06/23 08:07:36;;;;;;;;;;;;;;;31.40;58.85;99721.34;5010206;28;20353;-83
2022/06/23 08:10:05;;;;;;;;;;;;;;;31.80;58.07;99719.97;5010613;28;20036;-84
2022/06/23 08:12:55;;;;;;;;;;;;;;;32.01;55.53;99722.84;4992720;28;20407;-83
2022/06/23 08:18:47;;;;;;;;;;;;;;;31.97;54.53;99705.00;4953637;29;20347;-86
2022/06/23 08:21:34;;;;;;;;;;;;;;;32.21;54.83;99707.38;4937769;29;20475;-83
2022/06/23 08:23:59;;;;;;;;;;;;;;;32.15;51.87;99708.16;5000971;28;19933;-86
2022/06/23 08:26:24;;;;;;;;;;;;;;;32.20;52.17;99711.19;5016907;28;20376;-84
2022/06/23 08:28:52;;;;;;;;;;;;;;;32.54;52.00;99714.09;5033829;28;19940;-86
2022/06/23 08:31:19;;;;;;;;;;;;;;;32.64;50.24;99709.13;5033895;28;19943;-86
2022/06/23 08:33:44;;;;;;;;;;;;;;;32.81;50.63;99710.56;5015149;28;19933;-83
2022/06/23 08:36:13;;;;;;;;;;;;;;;32.76;50.37;99724.06;4996430;28;20421;-84
2022/06/23 08:38:44;;;;;;;;;;;;;;;33.12;50.51;99708.28;5014435;28;19985;-84
2022/06/23 08:41:28;;;;;;;;;;;;;;;32.83;48.31;99711.22;4996971;28;19959;-87
2022/06/23 08:44:14;;;;;;;;;;;;;;;32.95;49.33;99711.56;5014542;28;20251;-86
2022/06/23 08:46:40;;;;;;;;;;;;;;;33.25;47.15;99713.88;4996675;28;19910;-86
2022/06/23 08:49:08;;;;;;;;;;;;;;;33.52;47.21;99714.94;5014038;28;19934;-86
2022/06/23 08:51:41;;;;;;;;;;;;;;;33.69;45.57;99709.91;4996358;28;19933;-87
2022/06/23 08:54:07;;;;;;;;;;;;;;;33.38;45.48;99702.94;4996749;28;19916;-84
2022/06/23 08:56:51;;;;;;;;;;;;;;;33.45;46.23;99707.66;4996658;28;19935;-84
2022/06/23 08:59:20;;;;;;;;;;;;;;;33.72;45.61;99704.84;4997351;28;19924;-85
2022/06/23 09:01:49;;;;;;;;;;;;;;;33.81;44.10;99703.59;4996970;28;20015;-86
2022/06/23 09:04:22;;;;;;;;;;;;;;;33.78;44.96;99694.88;4996246;28;19928;-87
2022/06/23 09:07:06;;;;;;;;;;;;;;;33.55;47.16;99691.59;5013137;28;19961;-83
2022/06/23 09:09:38;;;;;;;;;;;;;;;33.49;47.52;99692.41;4993882;28;19949;-87
2022/06/23 09:12:12;;;;;;;;;;;;;;;33.36;47.56;99694.00;4994769;28;20392;-83
2022/06/23 09:14:40;;;;;;;;;;;;;;;33.56;46.63;99690.53;5014830;28;19925;-87
2022/06/23 09:17:09;;;;;;;;;;;;;;;33.87;46.56;99686.19;5001770;28;19931;-88
2022/06/23 09:19:34;;;;;;;;;;;;;;;34.21;45.41;99682.53;5016883;28;19952;-87
2022/06/23 09:22:10;;;;;;;;;;;;;;;33.72;45.82;99679.16;4996044;28;20460;-87
2022/06/23 09:24:54;;;;;;;;;;;;;;;34.04;47.95;99675.66;4996429;28;20670;-87
2022/06/23 09:27:42;;;;;;;;;;;;;;;34.19;46.52;99668.94;5024076;28;19934;-87
2022/06/23 09:30:08;;;;;;;;;;;;;;;34.41;43.30;99664.97;5033347;28;19951;-83
2022/06/23 09:32:43;;;;;;;;;;;;;;;34.34;42.80;99661.31;5031786;28;19927;-86
2022/06/23 09:35:21;;;;;;;;;;;;;;;34.12;44.46;99657.00;4995954;28;20375;-86
2022/06/23 09:38:05;;;;;;;;;;;;;;;33.85;45.61;99663.50;4996023;28;19935;-83
2022/06/23 09:40:39;;;;;;;;;;;;;;;33.98;47.07;99643.38;5013144;28;19946;-86
2022/06/23 09:43:20;;;;;;;;;;;;;;;34.49;44.59;99637.13;4995573;28;20016;-83
2022/06/23 09:46:04;;;;;;;;;;;;;;;34.50;42.00;99646.25;4996993;28;19937;-87
2022/06/23 09:48:30;;;;;;;;;;;;;;;34.24;42.49;99640.66;5014447;28;19949;-85
2022/06/23 09:51:05;;;;;;;;;;;;;;;34.33;45.66;99643.00;5014064;28;19928;-86
2022/06/23 09:53:38;;;;;;;;;;;;;;;34.38;43.98;99636.88;4996839;28;19938;-87
2022/06/23 09:56:03;;;;;;;;;;;;;;;34.79;43.83;99633.91;5014528;28;19936;-83
2022/06/23 09:58:35;;;;;;;;;;;;;;;35.27;43.21;99635.34;4996626;28;19930;-88
2022/06/23 10:01:12;;;;;;;;;;;;;;;35.09;40.72;99647.09;4996595;28;19999;-84
2022/06/23 10:03:45;;;;;;;;;;;;;;;34.87;42.23;99637.31;5014202;28;19927;-83
2022/06/23 10:06:10;;;;;;;;;;;;;;;34.99;43.16;99635.66;4995748;28;20330;-86
2022/06/23 10:08:54;;;;;;;;;;;;;;;35.08;41.77;99641.78;4996157;28;19973;-87
2022/06/23 10:11:22;;;;;;;;;;;;;;;34.58;42.12;99635.84;4996433;28;19925;-88
2022/06/23 10:13:48;;;;;;;;;;;;;;;34.27;44.09;99637.47;4996910;28;19944;-84
2022/06/23 10:16:32;;;;;;;;;;;;;;;34.30;43.18;99637.09;4995552;28;19934;-87
2022/06/23 10:19:06;;;;;;;;;;;;;;;34.48;43.52;99640.09;5012850;28;20023;-84
2022/06/23 10:22:07;;;;;;;;;;;;;;;34.05;43.02;99633.22;5014020;28;19967;-84
2022/06/23 10:24:41;;;;;;;;;;;;;;;34.33;43.73;99631.13;4935663;29;19978;-86
2022/06/23 10:27:10;;;;;;;;;;;;;;;34.74;42.63;99631.81;5011243;28;20371;-88
2022/06/23 10:29:54;;;;;;;;;;;;;;;35.35;44.30;99624.06;5014924;28;20019;-84
2022/06/23 10:32:39;;;;;;;;;;;;;;;35.45;41.68;99622.53;5016172;28;19944;-83
2022/06/23 10:35:10;;;;;;;;;;;;;;;35.13;41.23;99617.09;5021524;28;19926;-88
2022/06/23 10:37:36;;;;;;;;;;;;;;;35.15;43.34;99620.50;4996813;28;20325;-84
2022/06/23 10:40:20;;;;;;;;;;;;;;;34.92;40.85;99609.91;4992376;28;19975;-87
2022/06/23 10:42:48;;;;;;;;;;;;;;;35.35;43.20;99611.06;4996063;28;19913;-88
2022/06/23 10:45:26;;;;;;;;;;;;;;;35.61;41.88;99602.69;4996835;28;19930;-85
2022/06/23 10:47:52;;;;;;;;;;;;;;;35.81;42.89;99610.88;4996038;28;20197;-84
2022/06/23 10:50:23;;;;;;;;;;;;;;;36.03;39.12;99615.03;5013657;28;20061;-88
2022/06/23 10:53:05;;;;;;;;;;;;;;;36.08;38.53;99598.59;4996058;28;19929;-88
2022/06/23 10:55:46;;;;;;;;;;;;;;;36.12;39.28;99599.00;4995866;28;19986;-87
2022/06/23 10:58:16;;;;;;;;;;;;;;;36.31;39.58;99592.47;4995592;28;19937;-83
2022/06/23 11:00:41;;;;;;;;;;;;;;;36.36;40.31;99593.50;4995460;28;19947;-88
2022/06/23 11:03:09;;;;;;;;;;;;;;;36.96;41.08;99594.69;4996001;28;20357;-89
2022/06/23 11:05:50;;;;;;;;;;;;;;;37.00;39.72;99585.66;4993000;28;20332;-88
2022/06/23 11:08:35;;;;;;;;;;;;;;;37.04;37.19;99585.25;4994180;28;19937;-88
2022/06/23 11:11:31;;;;;;;;;;;;;;;36.55;39.27;99580.56;4994890;28;19962;-84
2022/06/23 11:14:06;;;;;;;;;;;;;;;36.21;38.38;99567.19;4980274;28;19942;-84
2022/06/23 11:16:31;;;;;;;;;;;;;;;36.59;38.33;99560.47;4981444;28;20005;-84
2022/06/23 11:18:56;;;;;;;;;;;;;;;36.96;38.95;99566.97;4993997;28;19956;-89
2022/06/23 11:21:24;;;;;;;;;;;;;;;37.06;38.57;99560.88;4992970;28;20661;-88
2022/06/23 11:24:03;;;;;;;;;;;;;;;36.99;38.77;99559.03;4994265;28;19970;-87
2022/06/23 11:26:35;;;;;;;;;;;;;;;36.99;38.98;99552.63;4994690;28;19927;-89
2022/06/23 11:29:12;;;;;;;;;;;;;;;36.81;38.47;99547.06;5001073;28;19928;-85
2022/06/23 11:31:42;;;;;;;;;;;;;;;37.00;39.01;99540.47;4993062;28;20019;-88
2022/06/23 11:34:26;;;;;;;;;;;;;;;36.99;37.85;99534.06;4986489;28;20340;-86
2022/06/23 11:36:52;;;;;;;;;;;;;;;37.19;38.01;99544.91;4973754;28;19931;-87
2022/06/23 11:39:17;;;;;;;;;;;;;;;37.30;37.46;99548.88;4972792;28;19931;-85
2022/06/23 11:42:06;;;;;;;;;;;;;;;37.30;37.43;99546.94;4976217;28;20421;-86
2022/06/23 11:44:46;;;;;;;;;;;;;;;36.94;38.73;99546.91;4973745;28;19991;-86
2022/06/23 11:47:12;;;;;;;;;;;;;;;37.28;38.68;99538.03;4974392;28;20363;-88
2022/06/23 11:49:43;;;;;;;;;;;;;;;37.59;35.58;99540.59;4992571;28;20026;-87
2022/06/23 11:52:08;;;;;;;;;;;;;;;37.36;36.53;99539.63;4994968;28;19940;-85
2022/06/23 11:54:49;;;;;;;;;;;;;;;37.40;38.60;99538.91;4997154;28;19936;-88
2022/06/23 11:57:42;;;;;;;;;;;;;;;37.34;36.51;99530.66;4998541;28;19941;-87
2022/06/23 12:00:10;;;;;;;;;;;;;;;37.51;37.31;99520.63;4996675;28;19950;-85
2022/06/23 12:02:44;;;;;;;;;;;;;;;37.61;37.73;99516.19;4998237;28;19945;-85
2022/06/23 12:05:15;;;;;;;;;;;;;;;37.83;39.92;99509.06;4996830;28;19976;-85
2022/06/23 12:08:07;;;;;;;;;;;;;;;38.03;37.75;99503.19;5013722;28;19943;-88
2022/06/23 12:10:34;;;;;;;;;;;;;;;37.97;37.02;99498.59;4997699;28;20300;-85
2022/06/23 12:13:02;;;;;;;;;;;;;;;38.10;38.29;99493.66;4999676;28;20307;-85
2022/06/23 12:15:30;;;;;;;;;;;;;;;38.49;36.86;99491.28;4996271;28;19972;-88
2022/06/23 12:18:08;;;;;;;;;;;;;;;38.64;37.41;99488.88;4994985;28;19928;-85
2022/06/23 12:20:40;;;;;;;;;;;;;;;38.85;34.67;99485.50;4996984;28;19953;-85
2022/06/23 12:23:08;;;;;;;;;;;;;;;38.49;35.99;99481.00;4996251;28;19931;-84
2022/06/23 12:25:41;;;;;;;;;;;;;;;38.63;37.74;99470.53;4995711;28;19968;-87
2022/06/23 12:28:22;;;;;;;;;;;;;;;38.72;36.89;99478.25;4997263;28;19932;-85
2022/06/23 12:31:06;;;;;;;;;;;;;;;38.79;37.03;99470.63;4995494;28;20302;-84
2022/06/23 12:33:31;;;;;;;;;;;;;;;38.52;37.65;99474.13;4996277;28;19936;-84
2022/06/23 12:36:06;;;;;;;;;;;;;;;38.13;38.04;99470.94;4996112;28;19978;-85
2022/06/23 12:38:36;;;;;;;;;;;;;;;37.89;38.55;99466.44;4996979;28;20005;-85
2022/06/23 12:41:07;;;;;;;;;;;;;;;37.16;38.42;99462.16;4994755;28;20491;-83
2022/06/23 12:43:39;;;;;;;;;;;;;;;36.56;40.81;99455.59;4996008;28;19929;-85
2022/06/23 12:46:12;;;;;;;;;;;;;;;35.93;40.84;99456.84;4996870;28;19936;-87
2022/06/23 12:48:46;;;;;;;;;;;;;;;35.91;41.97;99439.63;4995887;28;19923;-84
2022/06/23 12:51:11;;;;;;;;;;;;;;;36.35;42.85;99435.78;4994421;28;19951;-84
2022/06/23 12:53:37;;;;;;;;;;;;;;;36.73;39.50;99434.50;4998645;28;19933;-85
2022/06/23 12:56:03;;;;;;;;;;;;;;;37.05;39.36;99429.66;4998299;28;20343;-84
2022/06/23 12:58:36;;;;;;;;;;;;;;;37.25;40.04;99421.91;4994873;28;19936;-87
2022/06/23 13:01:10;;;;;;;;;;;;;;;37.66;40.33;99418.31;4996003;28;19983;-85
2022/06/23 13:03:48;;;;;;;;;;;;;;;37.77;38.07;99414.75;4993502;28;19939;-84
2022/06/23 13:06:32;;;;;;;;;;;;;;;37.92;40.88;99415.97;4975595;28;19968;-88
2022/06/23 13:09:16;;;;;;;;;;;;;;;38.17;37.32;99411.03;4978331;28;19994;-86
2022/06/23 13:11:53;;;;;;;;;;;;;;;38.25;38.77;99400.66;4980069;28;19927;-85
2022/06/23 13:14:24;;;;;;;;;;;;;;;38.28;39.52;99389.06;4994124;28;20009;-86
2022/06/23 13:16:58;;;;;;;;;;;;;;;38.16;39.05;99387.13;4977663;28;20013;-85
2022/06/23 13:19:35;;;;;;;;;;;;;;;38.37;38.84;99388.44;4975604;28;19936;-85
2022/06/23 13:22:05;;;;;;;;;;;;;;;38.27;38.53;99387.38;4976853;28;20326;-88
2022/06/23 13:24:34;;;;;;;;;;;;;;;37.97;36.68;99382.78;4979477;28;19925;-86
2022/06/23 13:27:00;;;;;;;;;;;;;;;37.93;37.81;99380.69;4998890;28;19932;-88